Time;durP1;ratioP1;P1;durP2;ratioP2;P2;SDS_P1;SDS_P2;PMS_P1;PMS_P2;Temp;Humidity;BMP_temperature;BMP_pressure;BME280_temperature;BME280_humidity;BME280_pressure;Samples;Min_cycle;Max_cycle;Signal;HPM_P1;HPM_P2
2021/07/09 00:01:06;;;;;;;7.32;5.22;;;13.60;86.20;;;;;;5089024;28;20162;-59
2021/07/09 00:03:37;;;;;;;7.00;4.57;;;13.60;86.20;;;;;;5088617;28;20597;-59
2021/07/09 00:06:05;;;;;;;8.52;4.75;;;13.60;86.30;;;;;;5088628;28;20032;-59
2021/07/09 00:08:33;;;;;;;8.30;5.20;;;13.60;86.20;;;;;;5088552;28;20044;-60
2021/07/09 00:11:01;;;;;;;7.47;5.00;;;13.60;86.20;;;;;;5088169;28;20047;-55
2021/07/09 00:13:28;;;;;;;7.75;5.43;;;13.60;86.20;;;;;;5088028;28;20096;-59
2021/07/09 00:15:55;;;;;;;4.90;4.40;;;13.60;86.20;;;;;;5088600;28;20070;-58
2021/07/09 00:18:23;;;;;;;10.10;4.88;;;13.60;86.30;;;;;;5088514;28;20028;-59
2021/07/09 00:20:50;;;;;;;6.07;4.90;;;13.60;86.30;;;;;;5088243;28;20042;-62
2021/07/09 00:23:18;;;;;;;8.35;4.90;;;13.60;86.30;;;;;;5088328;28;20367;-61
2021/07/09 00:25:45;;;;;;;6.85;4.68;;;13.60;86.30;;;;;;5088212;28;20028;-59
2021/07/09 00:28:13;;;;;;;5.38;4.53;;;13.60;86.30;;;;;;5088244;28;20120;-57
2021/07/09 00:30:40;;;;;;;5.32;4.60;;;13.70;86.20;;;;;;5087940;28;20028;-57
2021/07/09 00:33:07;;;;;;;8.48;5.30;;;13.60;86.20;;;;;;5088262;28;20553;-57
2021/07/09 00:35:35;;;;;;;7.63;4.43;;;13.70;86.10;;;;;;5089494;28;20028;-56
2021/07/09 00:38:06;;;;;;;7.47;4.43;;;13.70;86.10;;;;;;5092615;28;20075;-64
2021/07/09 00:40:33;;;;;;;6.18;4.53;;;13.70;86.00;;;;;;5091783;28;20053;-52
2021/07/09 00:43:01;;;;;;;8.35;4.65;;;13.70;86.00;;;;;;5091323;28;20378;-57
2021/07/09 00:45:29;;;;;;;6.78;4.20;;;13.70;86.10;;;;;;5091706;28;20031;-56
2021/07/09 00:47:56;;;;;;;6.15;4.20;;;13.70;86.00;;;;;;5091355;28;20532;-52
2021/07/09 00:50:24;;;;;;;7.25;4.68;;;13.70;86.00;;;;;;5091387;28;20451;-52
2021/07/09 00:52:51;;;;;;;6.00;4.45;;;13.80;86.10;;;;;;5091228;28;20111;-59
2021/07/09 00:55:19;;;;;;;5.28;3.50;;;13.70;86.00;;;;;;5091803;28;20101;-54
2021/07/09 00:57:53;;;;;;;16.17;4.28;;;13.80;86.00;;;;;;5089831;28;20062;-59
2021/07/09 01:00:23;;;;;;;5.45;4.50;;;13.80;86.00;;;;;;5091179;28;20112;-58
2021/07/09 01:02:51;;;;;;;7.07;4.63;;;13.80;85.90;;;;;;5090059;28;20426;-58
2021/07/09 01:05:19;;;;;;;5.40;4.40;;;13.80;85.90;;;;;;5091324;28;20035;-58
2021/07/09 01:07:47;;;;;;;10.73;4.40;;;13.80;85.90;;;;;;5091137;28;20028;-60
2021/07/09 01:10:18;;;;;;;5.25;3.33;;;13.80;85.90;;;;;;5091363;28;20044;-59
2021/07/09 01:12:47;;;;;;;5.57;4.00;;;13.80;85.90;;;;;;5091193;28;20106;-59
2021/07/09 01:15:18;;;;;;;5.03;3.50;;;13.90;85.90;;;;;;5091201;28;20134;-60
2021/07/09 01:17:46;;;;;;;5.25;4.07;;;13.80;85.90;;;;;;5091061;28;20110;-59
2021/07/09 01:20:17;;;;;;;5.95;4.25;;;13.80;85.90;;;;;;5091254;28;20139;-60
2021/07/09 01:22:46;;;;;;;6.65;4.40;;;13.90;86.00;;;;;;5091124;28;20031;-57
2021/07/09 01:25:22;;;;;;;7.38;4.22;;;13.90;86.00;;;;;;5091238;28;20383;-58
2021/07/09 01:27:56;;;;;;;6.80;4.05;;;13.80;85.90;;;;;;5090882;28;20091;-57
2021/07/09 01:30:25;;;;;;;6.75;4.30;;;13.90;86.00;;;;;;5091487;28;20035;-55
2021/07/09 01:32:54;;;;;;;5.38;4.38;;;13.90;86.00;;;;;;5090252;28;20105;-60
2021/07/09 01:35:23;;;;;;;5.75;4.38;;;13.90;86.00;;;;;;5090959;28;20111;-60
2021/07/09 01:38:03;;;;;;;5.38;4.18;;;13.90;86.00;;;;;;5090764;28;20024;-55
2021/07/09 01:40:33;;;;;;;5.47;4.13;;;13.90;86.00;;;;;;5090417;28;20035;-58
2021/07/09 01:43:01;;;;;;;5.05;4.38;;;13.90;86.00;;;;;;5090827;28;20036;-59
2021/07/09 01:45:30;;;;;;;7.35;4.45;;;13.90;86.00;;;;;;5090729;28;20096;-57
2021/07/09 01:47:58;;;;;;;4.70;4.22;;;13.90;86.00;;;;;;5090067;28;20394;-60
2021/07/09 01:50:26;;;;;;;6.00;4.05;;;13.90;86.00;;;;;;5090649;28;20040;-58
2021/07/09 01:52:54;;;;;;;6.57;4.03;;;13.90;85.90;;;;;;5090339;28;20028;-60
2021/07/09 01:55:26;;;;;;;7.88;4.25;;;13.90;86.60;;;;;;5090412;28;20032;-51
2021/07/09 01:57:54;;;;;;;12.15;4.53;;;13.90;86.00;;;;;;5090281;28;20031;-56
2021/07/09 02:00:24;;;;;;;6.15;4.10;;;13.90;86.10;;;;;;5090440;28;20035;-56
2021/07/09 02:02:52;;;;;;;7.25;3.90;;;13.90;86.10;;;;;;5090192;28;20028;-56
2021/07/09 02:05:21;;;;;;;5.72;4.25;;;13.90;86.20;;;;;;5090504;28;20435;-58
2021/07/09 02:07:54;;;;;;;5.07;3.72;;;14.00;86.30;;;;;;5090207;28;20039;-60
2021/07/09 02:10:29;;;;;;;9.43;4.00;;;14.00;86.20;;;;;;5090601;28;20020;-60
2021/07/09 02:12:58;;;;;;;5.72;3.97;;;13.90;86.20;;;;;;5089622;28;20024;-62
2021/07/09 02:15:33;;;;;;;5.63;4.13;;;13.90;86.30;;;;;;5089781;28;20043;-57
2021/07/09 02:18:01;;;;;;;5.82;4.00;;;14.00;86.30;;;;;;5087194;28;20588;-62
2021/07/09 02:20:29;;;;;;;8.95;4.40;;;13.90;86.30;;;;;;5089802;28;20036;-60
2021/07/09 02:22:58;;;;;;;5.38;3.75;;;13.90;86.40;;;;;;5089395;28;20390;-60
2021/07/09 02:25:26;;;;;;;4.85;4.20;;;14.00;86.50;;;;;;5090117;28;20093;-59
2021/07/09 02:27:55;;;;;;;6.05;3.70;;;14.00;86.40;;;;;;5089905;28;20110;-61
2021/07/09 02:30:24;;;;;;;6.35;4.07;;;13.90;86.50;;;;;;5089775;28;20040;-55
2021/07/09 02:32:52;;;;;;;6.22;3.80;;;14.00;86.50;;;;;;5089497;28;20064;-60
2021/07/09 02:35:22;;;;;;;5.60;4.13;;;14.00;86.50;;;;;;5089653;28;20499;-56
2021/07/09 02:37:51;;;;;;;8.18;4.22;;;14.00;86.60;;;;;;5089933;28;20036;-56
2021/07/09 02:40:22;;;;;;;6.20;4.32;;;14.00;86.60;;;;;;5089761;28;20032;-57
2021/07/09 02:42:52;;;;;;;6.88;4.65;;;13.90;86.70;;;;;;5089417;28;20032;-56
2021/07/09 02:45:21;;;;;;;8.85;5.07;;;14.00;86.70;;;;;;5089497;28;20039;-59
2021/07/09 02:47:49;;;;;;;5.70;4.78;;;14.00;86.80;;;;;;5089642;28;20074;-59
2021/07/09 02:50:19;;;;;;;7.90;4.10;;;13.90;86.70;;;;;;5087627;28;20032;-54
2021/07/09 02:52:47;;;;;;;5.90;4.18;;;13.90;86.80;;;;;;5089342;28;20020;-56
2021/07/09 02:55:17;;;;;;;7.85;4.43;;;14.00;86.90;;;;;;5089106;28;20032;-58
2021/07/09 02:57:46;;;;;;;6.43;4.53;;;14.00;87.00;;;;;;5088505;28;20035;-59
2021/07/09 03:00:16;;;;;;;5.75;4.80;;;14.00;87.40;;;;;;5088904;28;20400;-50
2021/07/09 03:02:44;;;;;;;6.13;4.32;;;14.00;87.10;;;;;;5088816;28;20032;-54
2021/07/09 03:05:12;;;;;;;6.20;4.70;;;14.00;87.00;;;;;;5089015;28;20112;-53
2021/07/09 03:07:40;;;;;;;6.65;4.88;;;14.00;87.00;;;;;;5088718;28;20036;-57
2021/07/09 03:10:10;;;;;;;7.57;4.97;;;14.00;87.10;;;;;;5088861;28;20077;-52
2021/07/09 03:12:39;;;;;;;6.80;4.63;;;14.00;87.10;;;;;;5089313;28;20107;-57
2021/07/09 03:15:09;;;;;;;7.78;4.95;;;14.00;87.10;;;;;;5089563;28;20020;-55
2021/07/09 03:17:36;;;;;;;7.45;5.45;;;14.00;87.10;;;;;;5088940;28;20565;-60
2021/07/09 03:20:07;;;;;;;6.75;4.82;;;14.00;87.50;;;;;;5087512;28;20028;-56
2021/07/09 03:22:34;;;;;;;5.75;4.40;;;14.00;87.30;;;;;;5089307;28;20031;-59
2021/07/09 03:25:01;;;;;;;8.90;4.22;;;14.00;87.50;;;;;;5088851;28;20114;-59
2021/07/09 03:27:29;;;;;;;7.45;4.22;;;14.00;87.50;;;;;;5088777;28;20052;-52
2021/07/09 03:29:56;;;;;;;7.40;5.10;;;14.10;87.50;;;;;;5088766;28;20039;-54
2021/07/09 03:32:26;;;;;;;5.45;4.70;;;14.10;87.40;;;;;;5088420;28;20447;-60
2021/07/09 03:34:53;;;;;;;6.85;4.53;;;14.10;87.60;;;;;;5088646;28;20024;-55
2021/07/09 03:37:21;;;;;;;11.60;4.80;;;14.10;87.30;;;;;;5087142;28;20504;-54
2021/07/09 03:39:48;;;;;;;6.75;4.35;;;14.10;87.10;;;;;;5088410;28;20028;-56
2021/07/09 03:42:16;;;;;;;7.15;4.10;;;14.10;87.30;;;;;;5088074;28;20032;-60
2021/07/09 03:44:43;;;;;;;6.75;4.40;;;14.10;87.40;;;;;;5088845;28;20451;-60
2021/07/09 03:47:10;;;;;;;7.70;4.07;;;14.10;87.20;;;;;;5088627;28;20532;-55
2021/07/09 03:49:38;;;;;;;7.15;4.72;;;14.10;87.20;;;;;;5088770;28;20039;-58
2021/07/09 03:52:06;;;;;;;6.65;4.57;;;14.10;87.20;;;;;;5089107;28;20028;-59
2021/07/09 03:54:35;;;;;;;6.82;4.95;;;14.10;87.50;;;;;;5087441;28;20039;-57
2021/07/09 03:57:04;;;;;;;9.48;4.55;;;14.10;87.40;;;;;;5088957;28;20583;-59
2021/07/09 03:59:31;;;;;;;7.13;4.78;;;14.10;87.20;;;;;;5089018;28;20034;-59
2021/07/09 04:01:58;;;;;;;6.80;5.00;;;14.10;87.00;;;;;;5088660;28;20054;-59
2021/07/09 04:04:26;;;;;;;7.50;4.75;;;14.10;87.70;;;;;;5088779;28;20032;-59
2021/07/09 04:06:53;;;;;;;7.05;4.63;;;14.10;87.30;;;;;;5088758;28;20509;-59
2021/07/09 04:09:20;;;;;;;7.22;4.68;;;14.10;87.60;;;;;;5077722;28;20044;-55
2021/07/09 04:11:48;;;;;;;6.00;5.00;;;14.10;88.00;;;;;;5090505;28;20076;-54
2021/07/09 04:14:16;;;;;;;8.02;5.45;;;14.10;87.30;;;;;;5092673;28;20031;-57
2021/07/09 04:16:44;;;;;;;6.20;4.57;;;14.20;88.00;;;;;;5089733;28;20846;-59
2021/07/09 04:19:11;;;;;;;6.65;4.50;;;14.20;87.80;;;;;;5088695;28;20457;-56
2021/07/09 04:21:39;;;;;;;7.68;4.82;;;14.20;87.70;;;;;;5091050;28;20059;-58
2021/07/09 04:24:06;;;;;;;7.50;5.00;;;14.20;87.80;;;;;;5091054;28;20028;-59
2021/07/09 04:26:34;;;;;;;9.15;4.38;;;14.20;87.70;;;;;;5088897;28;20032;-54
2021/07/09 04:29:03;;;;;;;6.38;5.07;;;14.30;88.00;;;;;;5089442;28;20168;-52
2021/07/09 04:31:30;;;;;;;6.80;4.68;;;14.30;87.40;;;;;;5090348;28;20380;-47
2021/07/09 04:33:58;;;;;;;6.40;4.28;;;14.30;87.60;;;;;;5090856;28;20024;-50
2021/07/09 04:36:25;;;;;;;8.23;4.50;;;14.30;87.60;;;;;;5087020;28;20520;-53
2021/07/09 04:38:53;;;;;;;7.78;4.68;;;14.30;87.40;;;;;;5090062;28;20024;-53
2021/07/09 04:41:20;;;;;;;8.02;5.18;;;14.30;87.70;;;;;;5087357;28;20376;-48
2021/07/09 04:43:48;;;;;;;5.10;4.38;;;14.40;87.20;;;;;;5090755;28;20028;-51
2021/07/09 04:46:16;;;;;;;5.68;4.40;;;14.40;87.30;;;;;;5085171;28;20027;-54
2021/07/09 04:48:44;;;;;;;7.97;4.15;;;14.40;87.00;;;;;;5088964;28;20040;-56
2021/07/09 04:51:12;;;;;;;5.57;4.22;;;14.40;86.80;;;;;;5090400;28;20471;-55
2021/07/09 04:53:42;;;;;;;7.25;4.82;;;14.40;86.90;;;;;;5090324;28;20130;-53
2021/07/09 04:56:10;;;;;;;8.15;4.80;;;14.40;87.30;;;;;;5086303;28;20032;-55
2021/07/09 04:58:37;;;;;;;8.63;4.05;;;14.50;87.10;;;;;;5091718;28;20032;-56
2021/07/09 05:01:05;;;;;;;5.97;4.15;;;14.50;87.10;;;;;;5092000;28;20034;-55
2021/07/09 05:03:32;;;;;;;7.15;4.47;;;14.50;87.50;;;;;;5091972;28;20551;-59
2021/07/09 05:05:59;;;;;;;5.15;4.03;;;14.50;87.50;;;;;;5090312;28;20135;-52
2021/07/09 05:08:27;;;;;;;5.75;4.03;;;14.50;87.20;;;;;;5091647;28;20093;-56
2021/07/09 05:10:54;;;;;;;8.18;4.75;;;14.50;87.10;;;;;;5091492;28;20035;-50
2021/07/09 05:13:22;;;;;;;8.35;4.68;;;14.40;87.20;;;;;;5091923;28;20085;-54
2021/07/09 05:15:49;;;;;;;8.43;4.55;;;14.40;87.30;;;;;;5091473;28;20507;-54
2021/07/09 05:18:17;;;;;;;5.18;4.07;;;14.40;87.30;;;;;;5091263;28;20205;-54
2021/07/09 05:20:44;;;;;;;6.28;4.80;;;14.40;87.50;;;;;;5090570;28;20028;-60
2021/07/09 05:23:11;;;;;;;9.43;4.70;;;14.40;87.60;;;;;;5091159;28;20028;-54
2021/07/09 05:25:42;;;;;;;9.10;4.90;;;14.40;88.10;;;;;;5091199;28;20050;-54
2021/07/09 05:28:21;;;;;;;6.10;4.50;;;14.40;88.20;;;;;;5093736;28;20113;-48
2021/07/09 05:30:52;;;;;;;6.88;4.53;;;14.30;88.30;;;;;;5092458;28;20035;-50
2021/07/09 05:33:19;;;;;;;5.65;3.83;;;14.30;88.60;;;;;;5092152;28;20028;-54
2021/07/09 05:35:46;;;;;;;5.97;4.50;;;14.40;88.10;;;;;;5092073;28;20039;-51
2021/07/09 05:38:17;;;;;;;6.35;4.03;;;14.30;88.10;;;;;;5075053;28;20093;-58
2021/07/09 05:40:44;;;;;;;6.97;4.15;;;14.30;88.30;;;;;;5091241;28;20059;-53
2021/07/09 05:43:15;;;;;;;5.90;3.85;;;14.30;88.40;;;;;;5093505;28;20378;-48
2021/07/09 05:46:13;;;;;;;8.45;5.00;;;14.30;89.50;;;;;;5092894;28;20033;-53
2021/07/09 05:49:22;;;;;;;6.82;4.57;;;14.30;88.30;;;;;;5094018;28;20509;-49
2021/07/09 05:51:48;;;;;;;6.80;3.88;;;14.30;88.60;;;;;;5092723;28;20554;-54
2021/07/09 05:54:16;;;;;;;6.00;4.22;;;14.30;88.90;;;;;;5092331;28;20029;-49
2021/07/09 05:56:43;;;;;;;6.80;4.15;;;14.30;88.60;;;;;;5092166;28;20039;-51
2021/07/09 05:59:11;;;;;;;5.15;4.25;;;14.30;88.90;;;;;;5091518;28;20028;-48
2021/07/09 06:01:39;;;;;;;7.47;4.45;;;14.30;89.40;;;;;;5090233;28;20557;-53
2021/07/09 06:04:10;;;;;;;6.32;4.50;;;14.30;88.30;;;;;;5091861;28;20070;-50
2021/07/09 06:06:38;;;;;;;6.88;4.25;;;14.30;88.70;;;;;;5091373;28;20043;-51
2021/07/09 06:09:08;;;;;;;6.25;4.50;;;14.30;88.30;;;;;;5090879;28;20191;-50
2021/07/09 06:11:39;;;;;;;5.03;4.03;;;14.30;88.40;;;;;;5091811;28;20023;-46
2021/07/09 06:14:15;;;;;;;7.75;4.43;;;14.30;88.50;;;;;;5092358;28;20035;-55
2021/07/09 06:16:49;;;;;;;6.07;4.22;;;14.30;88.40;;;;;;5093394;28;20374;-56
2021/07/09 06:19:16;;;;;;;5.88;3.83;;;14.30;88.80;;;;;;5091737;28;20093;-49
2021/07/09 06:21:50;;;;;;;5.43;4.38;;;14.20;88.40;;;;;;5112687;28;20280;-53
2021/07/09 06:24:17;;;;;;;9.38;4.28;;;14.30;88.90;;;;;;5112342;28;20032;-52
2021/07/09 06:26:45;;;;;;;6.93;4.15;;;14.20;89.20;;;;;;5113810;28;20055;-49
2021/07/09 06:29:43;;;;;;;6.30;4.40;;;14.20;88.90;;;;;;5112636;28;20125;-54
2021/07/09 06:32:10;;;;;;;8.52;4.22;;;14.20;88.40;;;;;;5109873;28;20567;-54
2021/07/09 06:34:38;;;;;;;8.48;4.15;;;14.20;89.90;;;;;;5110843;28;20031;-53
2021/07/09 06:37:10;;;;;;;5.32;3.72;;;14.20;89.00;;;;;;5113520;28;20382;-52
2021/07/09 06:39:42;;;;;;;5.43;3.95;;;14.20;88.70;;;;;;5111330;28;20035;-48
2021/07/09 06:42:09;;;;;;;5.57;3.58;;;14.20;89.20;;;;;;5110760;28;20036;-57
2021/07/09 06:44:36;;;;;;;5.97;3.53;;;14.20;89.10;;;;;;5113480;28;20015;-55
2021/07/09 06:47:08;;;;;;;6.63;3.67;;;14.20;88.80;;;;;;5113238;28;20436;-51
2021/07/09 06:49:55;;;;;;;5.93;3.58;;;14.20;89.30;;;;;;5112143;28;20145;-51
2021/07/09 06:52:23;;;;;;;5.82;3.92;;;14.20;89.00;;;;;;5100280;28;20470;-59
2021/07/09 06:54:50;;;;;;;6.15;3.90;;;14.20;88.70;;;;;;5109558;28;20123;-59
2021/07/09 06:57:18;;;;;;;7.53;3.72;;;14.20;88.50;;;;;;5109033;28;20092;-56
2021/07/09 06:59:45;;;;;;;6.40;3.83;;;14.20;89.00;;;;;;5110493;28;20023;-51
2021/07/09 07:02:44;;;;;;;5.35;3.78;;;14.20;88.70;;;;;;5110868;28;20148;-52
2021/07/09 07:05:12;;;;;;;7.68;3.42;;;14.20;88.70;;;;;;5092833;28;20023;-56
2021/07/09 07:07:39;;;;;;;7.18;4.07;;;14.20;88.90;;;;;;5094260;28;20462;-53
2021/07/09 07:10:12;;;;;;;7.05;3.92;;;14.20;88.50;;;;;;5084847;28;20024;-57
2021/07/09 07:12:39;;;;;;;;;;;14.20;89.20;;;;;;5087932;28;20440;-59
2021/07/09 07:15:07;;;;;;;5.03;3.85;;;14.20;88.70;;;;;;5089793;28;19953;-58
2021/07/09 07:17:35;;;;;;;6.43;3.75;;;14.20;88.80;;;;;;5085839;28;20050;-51
2021/07/09 07:20:04;;;;;;;4.65;3.67;;;14.20;88.50;;;;;;5087072;28;20463;-51
2021/07/09 07:22:36;;;;;;;6.05;3.88;;;14.20;88.80;;;;;;5087796;28;20104;-54
2021/07/09 07:25:04;;;;;;;4.00;3.22;;;14.20;88.80;;;;;;5086756;28;20044;-53
2021/07/09 07:27:32;;;;;;;4.70;3.30;;;14.20;89.10;;;;;;5084816;28;20059;-55
2021/07/09 07:30:02;;;;;;;4.18;3.78;;;14.20;88.90;;;;;;5087023;28;20114;-52
2021/07/09 07:32:30;;;;;;;5.45;3.60;;;14.20;88.60;;;;;;5087895;28;20063;-52
2021/07/09 07:34:58;;;;;;;4.72;3.70;;;14.20;88.80;;;;;;5087482;28;20081;-51
2021/07/09 07:37:26;;;;;;;4.65;3.40;;;14.20;88.90;;;;;;5083721;28;20028;-51
2021/07/09 07:39:53;;;;;;;5.22;3.58;;;14.20;88.70;;;;;;5087279;28;20532;-55
2021/07/09 07:42:20;;;;;;;4.88;3.83;;;14.20;88.80;;;;;;5084620;28;20082;-54
2021/07/09 07:44:48;;;;;;;4.55;3.08;;;14.30;88.90;;;;;;5089118;28;20031;-55
2021/07/09 07:47:21;;;;;;;6.63;3.45;;;14.30;88.70;;;;;;5086609;28;20024;-55
2021/07/09 07:49:48;;;;;;;6.45;3.78;;;14.30;89.00;;;;;;5090592;28;20139;-54
2021/07/09 07:52:19;;;;;;;5.53;4.18;;;14.30;88.70;;;;;;5093308;28;20369;-49
2021/07/09 07:54:46;;;;;;;5.28;3.28;;;14.30;88.80;;;;;;5091957;28;20122;-53
2021/07/09 07:57:14;;;;;;;3.35;3.05;;;14.30;88.70;;;;;;5086835;28;20035;-52
2021/07/09 07:59:45;;;;;;;4.72;2.97;;;14.30;88.60;;;;;;5090466;28;20028;-52
2021/07/09 08:02:13;;;;;;;4.68;3.10;;;14.30;88.80;;;;;;5091359;28;20063;-50
2021/07/09 08:04:40;;;;;;;4.00;3.17;;;14.30;88.90;;;;;;5091697;28;20024;-56
2021/07/09 08:07:14;;;;;;;5.03;3.33;;;14.30;88.50;;;;;;5087387;28;20408;-54
2021/07/09 08:09:42;;;;;;;4.63;3.38;;;14.30;88.90;;;;;;5090684;28;20043;-55
2021/07/09 08:12:10;;;;;;;5.07;3.10;;;14.30;88.50;;;;;;5090563;28;20032;-56
2021/07/09 08:14:39;;;;;;;4.35;3.13;;;14.40;88.70;;;;;;5090177;28;20039;-48
2021/07/09 08:17:07;;;;;;;4.38;3.03;;;14.40;88.60;;;;;;5085606;28;20020;-57
2021/07/09 08:19:34;;;;;;;4.05;3.25;;;14.40;88.60;;;;;;5090425;28;20028;-53
2021/07/09 08:22:02;;;;;;;5.35;3.42;;;14.40;88.90;;;;;;5090839;28;20028;-51
2021/07/09 08:24:29;;;;;;;5.70;3.22;;;14.40;88.70;;;;;;5090959;28;20020;-52
2021/07/09 08:26:57;;;;;;;4.93;3.15;;;14.40;88.70;;;;;;5085616;28;20032;-55
2021/07/09 08:29:26;;;;;;;5.60;3.10;;;14.40;88.70;;;;;;5087277;28;20499;-53
2021/07/09 08:31:55;;;;;;;5.82;3.00;;;14.40;88.80;;;;;;5090552;28;20032;-55
2021/07/09 08:34:22;;;;;;;5.15;3.40;;;14.40;88.90;;;;;;5090942;28;20138;-58
2021/07/09 08:36:50;;;;;;;4.70;3.38;;;14.40;88.80;;;;;;5085569;28;20555;-58
2021/07/09 08:39:17;;;;;;;4.50;3.47;;;14.40;88.70;;;;;;5089195;28;20521;-58
2021/07/09 08:41:48;;;;;;;4.03;2.78;;;14.40;88.70;;;;;;5090377;28;20538;-52
2021/07/09 08:44:16;;;;;;;4.43;2.65;;;14.40;88.70;;;;;;5089531;28;20509;-54
2021/07/09 08:46:43;;;;;;;4.47;3.00;;;14.40;88.80;;;;;;5081209;28;20088;-54
2021/07/09 08:49:16;;;;;;;4.65;2.92;;;14.40;88.70;;;;;;5090178;28;20375;-54
2021/07/09 08:51:47;;;;;;;3.63;2.53;;;14.40;88.70;;;;;;5093427;28;20016;-53
2021/07/09 08:54:16;;;;;;;3.50;2.60;;;14.40;88.50;;;;;;5092068;28;20039;-52
2021/07/09 08:56:44;;;;;;;6.22;2.42;;;14.40;88.30;;;;;;5091207;28;20039;-54
2021/07/09 08:59:11;;;;;;;3.67;3.00;;;14.40;88.70;;;;;;5091534;28;20035;-51
2021/07/09 09:01:51;;;;;;;4.10;2.67;;;14.40;88.70;;;;;;5090707;28;20027;-51
2021/07/09 09:04:27;;;;;;;4.45;2.75;;;14.40;88.90;;;;;;5091913;28;20515;-61
2021/07/09 09:07:00;;;;;;;4.47;2.90;;;14.30;88.70;;;;;;5091838;28;20039;-57
2021/07/09 09:09:28;;;;;;;4.65;2.53;;;14.30;88.60;;;;;;5091313;28;20115;-56
2021/07/09 09:12:12;;;;;;;3.10;2.58;;;14.30;88.80;;;;;;5091373;28;20024;-52
2021/07/09 09:14:42;;;;;;;3.90;3.00;;;14.30;88.70;;;;;;5091336;28;20028;-56
2021/07/09 09:17:31;;;;;;;5.47;2.97;;;14.30;89.00;;;;;;5090889;28;20024;-49
2021/07/09 09:20:13;;;;;;;7.70;4.10;;;14.20;88.80;;;;;;5080428;28;20040;-59
2021/07/09 09:22:53;;;;;;;5.80;3.58;;;14.20;89.50;;;;;;5086932;28;20103;-56
2021/07/09 09:25:26;;;;;;;6.18;3.95;;;14.20;89.40;;;;;;5086801;28;20061;-54
2021/07/09 09:27:59;;;;;;;;;;;14.20;89.40;;;;;;5085231;28;20066;-51
2021/07/09 09:30:26;;;;;;;4.40;3.22;;;14.20;89.30;;;;;;5086762;28;19907;-54
2021/07/09 09:32:54;;;;;;;5.15;3.78;;;14.20;89.60;;;;;;5088240;28;20031;-56
2021/07/09 09:35:30;;;;;;;6.85;4.43;;;14.30;89.40;;;;;;5084199;28;20028;-55
2021/07/09 09:38:02;;;;;;;5.18;3.85;;;14.30;89.40;;;;;;5084631;28;20094;-51
2021/07/09 09:40:29;;;;;;;;;;;14.30;89.30;;;;;;5087558;28;20032;-52
2021/07/09 09:42:57;;;;;;;8.48;4.40;;;14.30;89.20;;;;;;5089029;28;19919;-53
2021/07/09 09:45:27;;;;;;;5.38;4.15;;;14.30;89.30;;;;;;5083840;28;20039;-60
2021/07/09 09:48:07;;;;;;;8.05;4.97;;;14.30;89.10;;;;;;5089960;28;20064;-60
2021/07/09 09:50:49;;;;;;;7.93;4.07;;;14.30;89.00;;;;;;5088198;28;20063;-58
2021/07/09 09:53:31;;;;;;;7.37;4.37;;;14.30;88.80;;;;;;5089506;28;20040;-50
2021/07/09 09:56:10;;;;;;;6.57;4.13;;;14.30;89.00;;;;;;5084650;28;20032;-57
2021/07/09 09:58:38;;;;;;;7.10;3.97;;;14.30;88.90;;;;;;5087464;28;20071;-55
2021/07/09 10:01:05;;;;;;;11.10;4.60;;;14.40;88.90;;;;;;5089745;28;20445;-52
2021/07/09 10:03:32;;;;;;;6.80;4.15;;;14.30;88.70;;;;;;5089396;28;20876;-56
2021/07/09 10:06:01;;;;;;;8.90;4.30;;;14.40;88.70;;;;;;5084410;28;20028;-57
2021/07/09 10:08:28;;;;;;;6.70;4.32;;;14.40;88.80;;;;;;5088435;28;20054;-54
2021/07/09 10:10:57;;;;;;;5.82;3.88;;;14.40;88.80;;;;;;5089317;28;20028;-57
2021/07/09 10:13:30;;;;;;;7.95;4.93;;;14.40;88.80;;;;;;5089433;28;20020;-57
2021/07/09 10:15:58;;;;;;;6.68;3.85;;;14.40;88.70;;;;;;5084261;28;20032;-55
2021/07/09 10:18:26;;;;;;;7.00;4.15;;;14.40;88.60;;;;;;5088542;28;20039;-59
2021/07/09 10:20:53;;;;;;;4.88;3.58;;;14.40;88.70;;;;;;5088445;28;20040;-56
2021/07/09 10:23:21;;;;;;;7.60;4.00;;;14.40;88.70;;;;;;5086983;28;20024;-54
2021/07/09 10:25:51;;;;;;;4.93;3.60;;;14.40;88.70;;;;;;5083782;28;20047;-48
2021/07/09 10:28:23;;;;;;;4.60;3.38;;;14.40;88.60;;;;;;5088117;28;20055;-45
2021/07/09 10:30:54;;;;;;;7.05;3.63;;;14.40;88.60;;;;;;5088475;28;20432;-55
2021/07/09 10:33:33;;;;;;;5.75;3.50;;;14.40;89.30;;;;;;5088411;28;20039;-50
2021/07/09 10:36:29;;;;;;;6.47;3.97;;;14.40;88.60;;;;;;5085681;28;20034;-56
2021/07/09 10:38:56;;;;;;;5.95;3.67;;;14.40;88.60;;;;;;5086271;28;20031;-57
2021/07/09 10:41:25;;;;;;;6.78;4.22;;;14.40;88.60;;;;;;5087346;28;20508;-56
2021/07/09 10:44:14;;;;;;;6.50;3.53;;;14.40;88.60;;;;;;5089024;28;20100;-56
2021/07/09 10:46:41;;;;;;;6.30;4.07;;;14.30;88.80;;;;;;5090204;28;20039;-59
2021/07/09 10:49:31;;;;;;;4.95;3.55;;;14.40;88.80;;;;;;5090260;28;20036;-55
2021/07/09 10:51:59;;;;;;;4.55;3.13;;;14.30;88.90;;;;;;5083977;28;20345;-55
2021/07/09 10:54:31;;;;;;;6.53;3.33;;;14.30;88.90;;;;;;5088103;28;20032;-51
2021/07/09 10:57:17;;;;;;;6.47;3.80;;;14.30;89.00;;;;;;5089496;28;20028;-57
2021/07/09 11:00:21;;;;;;;7.35;3.50;;;14.30;89.00;;;;;;5089480;28;20040;-58
2021/07/09 11:03:04;;;;;;;7.07;3.78;;;14.30;89.20;;;;;;5089221;28;20031;-57
2021/07/09 11:05:44;;;;;;;4.72;3.78;;;14.30;89.30;;;;;;5087814;28;20024;-60
2021/07/09 11:08:33;;;;;;;5.75;4.05;;;14.20;89.20;;;;;;5089566;28;20450;-58
2021/07/09 11:11:10;;;;;;;6.65;3.75;;;14.20;89.20;;;;;;5099125;28;20539;-55
2021/07/09 11:13:52;;;;;;;6.88;4.35;;;14.20;89.30;;;;;;5109637;28;20416;-56
2021/07/09 11:16:38;;;;;;;7.25;3.85;;;14.20;89.40;;;;;;5109417;28;20031;-58
2021/07/09 11:19:10;;;;;;;4.70;3.28;;;14.20;89.50;;;;;;5108470;28;20032;-56
2021/07/09 11:21:37;;;;;;;4.47;3.35;;;14.20;89.70;;;;;;5109871;28;20031;-56
2021/07/09 11:24:10;;;;;;;5.32;3.38;;;14.20;89.60;;;;;;5109810;28;20039;-57
2021/07/09 11:26:40;;;;;;;4.75;3.38;;;14.20;89.70;;;;;;5109092;28;20045;-55
2021/07/09 11:29:24;;;;;;;5.00;3.20;;;14.20;89.70;;;;;;5108879;28;20051;-59
2021/07/09 11:31:54;;;;;;;5.32;3.22;;;14.10;89.70;;;;;;5109844;28;20545;-57
2021/07/09 11:34:23;;;;;;;5.07;3.42;;;14.10;89.80;;;;;;5110252;28;20031;-51
2021/07/09 11:37:00;;;;;;;4.45;3.40;;;14.10;89.90;;;;;;5109303;28;20019;-59
2021/07/09 11:39:38;;;;;;;5.15;3.72;;;14.10;89.90;;;;;;5109844;28;20020;-59
2021/07/09 11:42:13;;;;;;;5.15;3.20;;;14.10;89.90;;;;;;5109822;28;20482;-57
2021/07/09 11:44:42;;;;;;;5.22;3.30;;;14.10;89.90;;;;;;5109065;28;20118;-56
2021/07/09 11:47:19;;;;;;;7.90;3.75;;;14.10;89.90;;;;;;5109585;28;20493;-55
2021/07/09 11:49:55;;;;;;;5.53;3.50;;;14.10;90.00;;;;;;5109278;28;20054;-60
2021/07/09 11:52:29;;;;;;;3.97;2.83;;;14.10;90.00;;;;;;5109703;28;20023;-54
2021/07/09 11:54:58;;;;;;;5.10;3.28;;;14.10;90.00;;;;;;5109091;28;20039;-55
2021/07/09 11:57:28;;;;;;;5.25;3.45;;;14.10;90.00;;;;;;5109365;28;20576;-51
2021/07/09 12:00:00;;;;;;;7.32;3.33;;;14.10;89.90;;;;;;5109525;28;20042;-51
2021/07/09 12:02:30;;;;;;;5.07;3.28;;;14.10;90.00;;;;;;5109419;28;20038;-56
2021/07/09 12:05:11;;;;;;;5.47;3.05;;;14.10;90.00;;;;;;5108538;28;20109;-60
2021/07/09 12:07:42;;;;;;;4.70;2.80;;;14.10;90.00;;;;;;5109109;28;20742;-57
2021/07/09 12:10:12;;;;;;;6.18;3.65;;;14.10;90.00;;;;;;5107730;28;20135;-57
2021/07/09 12:12:51;;;;;;;7.13;3.10;;;14.10;90.10;;;;;;5109229;28;20035;-56
2021/07/09 12:15:21;;;;;;;4.97;3.35;;;14.10;90.10;;;;;;5109097;28;20031;-58
2021/07/09 12:18:01;;;;;;;6.78;3.00;;;14.10;90.10;;;;;;5109391;28;20028;-56
2021/07/09 12:20:33;;;;;;;5.00;2.63;;;14.10;90.10;;;;;;5108798;28;20107;-57
2021/07/09 12:23:01;;;;;;;;;;;14.10;90.10;;;;;;5109465;28;20024;-58
2021/07/09 12:25:33;;;;;;;5.72;3.40;;;14.10;90.10;;;;;;5108943;28;20436;-59
2021/07/09 12:28:04;;;;;;;;;;;14.10;90.10;;;;;;5109410;28;20086;-56
2021/07/09 12:30:38;;;;;;;7.18;3.63;;;14.10;90.10;;;;;;5110301;28;20266;-58
2021/07/09 12:33:13;;;;;;;5.10;3.00;;;14.10;90.10;;;;;;5111604;28;20038;-57
2021/07/09 12:35:40;;;;;;;5.53;3.28;;;14.10;90.10;;;;;;5112465;28;20849;-55
2021/07/09 12:38:14;;;;;;;4.43;2.90;;;14.10;90.10;;;;;;5112825;28;20386;-59
2021/07/09 12:40:47;;;;;;;4.57;3.42;;;14.10;90.10;;;;;;5112578;28;20019;-52
2021/07/09 12:43:26;;;;;;;5.68;3.00;;;14.10;90.10;;;;;;5112708;28;20380;-55
2021/07/09 12:46:00;;;;;;;6.63;2.92;;;14.10;90.10;;;;;;5112164;28;20089;-58
2021/07/09 12:48:38;;;;;;;4.80;2.97;;;14.10;90.10;;;;;;5111908;28;20120;-57
2021/07/09 12:51:18;;;;;;;3.80;2.80;;;14.10;90.10;;;;;;5112303;28;20063;-59
2021/07/09 12:53:57;;;;;;;5.95;3.00;;;14.10;90.10;;;;;;5112761;28;20494;-50
2021/07/09 12:56:30;;;;;;;5.32;3.00;;;14.10;90.10;;;;;;5112800;28;20031;-55
2021/07/09 12:59:05;;;;;;;3.97;2.75;;;14.10;90.10;;;;;;5112235;28;20024;-56
2021/07/09 13:01:35;;;;;;;5.70;3.33;;;14.10;90.10;;;;;;5112973;28;20031;-56
2021/07/09 13:04:15;;;;;;;5.07;3.20;;;14.10;90.10;;;;;;5112242;28;20093;-51
2021/07/09 13:06:42;;;;;;;8.63;3.90;;;14.10;90.20;;;;;;5111234;28;20028;-51